sensor_id;sensor_type;location;lat;lon;timestamp;P1;durP1;ratioP1;P2;durP2;ratioP2
21243;SDS011;10780;50.942;4.028;2023-03-14T00:00:08;5.65;;;1.27;;
21243;SDS011;10780;50.942;4.028;2023-03-14T00:02:36;5.35;;;1.40;;
21243;SDS011;10780;50.942;4.028;2023-03-14T00:05:03;8.75;;;1.67;;
21243;SDS011;10780;50.942;4.028;2023-03-14T00:07:35;3.72;;;2.05;;
21243;SDS011;10780;50.942;4.028;2023-03-14T00:10:06;4.15;;;1.75;;
21243;SDS011;10780;50.942;4.028;2023-03-14T00:12:34;4.90;;;1.50;;
21243;SDS011;10780;50.942;4.028;2023-03-14T00:15:00;5.18;;;1.92;;
21243;SDS011;10780;50.942;4.028;2023-03-14T00:17:28;6.78;;;2.42;;
21243;SDS011;10780;50.942;4.028;2023-03-14T00:19:54;7.35;;;1.67;;
21243;SDS011;10780;50.942;4.028;2023-03-14T00:22:20;7.72;;;2.30;;
21243;SDS011;10780;50.942;4.028;2023-03-14T00:24:46;10.30;;;2.33;;
21243;SDS011;10780;50.942;4.028;2023-03-14T00:27:12;6.20;;;2.05;;
21243;SDS011;10780;50.942;4.028;2023-03-14T00:29:38;8.40;;;2.05;;
21243;SDS011;10780;50.942;4.028;2023-03-14T00:32:03;5.97;;;1.67;;
21243;SDS011;10780;50.942;4.028;2023-03-14T00:34:29;8.27;;;2.15;;
21243;SDS011;10780;50.942;4.028;2023-03-14T00:36:56;7.88;;;2.17;;
21243;SDS011;10780;50.942;4.028;2023-03-14T00:39:21;7.15;;;2.35;;
21243;SDS011;10780;50.942;4.028;2023-03-14T00:41:47;10.63;;;2.00;;
21243;SDS011;10780;50.942;4.028;2023-03-14T00:44:18;9.20;;;1.92;;
21243;SDS011;10780;50.942;4.028;2023-03-14T00:46:43;4.03;;;1.70;;
21243;SDS011;10780;50.942;4.028;2023-03-14T00:49:09;8.70;;;1.67;;
21243;SDS011;10780;50.942;4.028;2023-03-14T00:51:34;8.40;;;2.15;;
21243;SDS011;10780;50.942;4.028;2023-03-14T00:54:00;7.60;;;2.35;;
21243;SDS011;10780;50.942;4.028;2023-03-14T00:56:26;5.07;;;2.15;;
21243;SDS011;10780;50.942;4.028;2023-03-14T00:58:54;8.00;;;1.88;;
21243;SDS011;10780;50.942;4.028;2023-03-14T01:01:20;7.45;;;2.00;;
21243;SDS011;10780;50.942;4.028;2023-03-14T01:03:46;9.15;;;2.25;;
21243;SDS011;10780;50.942;4.028;2023-03-14T01:06:16;8.55;;;2.22;;
21243;SDS011;10780;50.942;4.028;2023-03-14T01:08:44;7.45;;;2.10;;
21243;SDS011;10780;50.942;4.028;2023-03-14T01:11:11;4.85;;;1.95;;
21243;SDS011;10780;50.942;4.028;2023-03-14T01:13:44;9.00;;;2.85;;
21243;SDS011;10780;50.942;4.028;2023-03-14T01:16:11;9.25;;;2.08;;
21243;SDS011;10780;50.942;4.028;2023-03-14T01:18:38;9.82;;;1.95;;
21243;SDS011;10780;50.942;4.028;2023-03-14T01:21:10;6.18;;;1.67;;
21243;SDS011;10780;50.942;4.028;2023-03-14T01:23:50;6.40;;;1.90;;
21243;SDS011;10780;50.942;4.028;2023-03-14T01:26:19;6.90;;;2.00;;
21243;SDS011;10780;50.942;4.028;2023-03-14T01:28:48;6.80;;;1.73;;
21243;SDS011;10780;50.942;4.028;2023-03-14T01:31:15;6.63;;;2.03;;
21243;SDS011;10780;50.942;4.028;2023-03-14T01:33:41;6.82;;;1.75;;
21243;SDS011;10780;50.942;4.028;2023-03-14T01:36:08;9.50;;;2.15;;
21243;SDS011;10780;50.942;4.028;2023-03-14T01:38:35;8.02;;;2.00;;
21243;SDS011;10780;50.942;4.028;2023-03-14T01:41:02;11.10;;;2.40;;
21243;SDS011;10780;50.942;4.028;2023-03-14T01:43:28;6.53;;;1.80;;
21243;SDS011;10780;50.942;4.028;2023-03-14T01:51:21;7.88;;;1.70;;
21243;SDS011;10780;50.942;4.028;2023-03-14T01:53:52;7.95;;;1.95;;
21243;SDS011;10780;50.942;4.028;2023-03-14T01:56:24;9.40;;;1.98;;
21243;SDS011;10780;50.942;4.028;2023-03-14T01:58:50;7.03;;;1.85;;
21243;SDS011;10780;50.942;4.028;2023-03-14T02:01:18;8.85;;;1.52;;
21243;SDS011;10780;50.942;4.028;2023-03-14T02:03:50;6.10;;;1.40;;
21243;SDS011;10780;50.942;4.028;2023-03-14T02:06:19;8.27;;;1.70;;
21243;SDS011;10780;50.942;4.028;2023-03-14T02:08:49;6.45;;;1.50;;
21243;SDS011;10780;50.942;4.028;2023-03-14T02:11:16;4.57;;;1.50;;
21243;SDS011;10780;50.942;4.028;2023-03-14T02:13:43;4.63;;;1.50;;
21243;SDS011;10780;50.942;4.028;2023-03-14T02:16:09;3.88;;;1.27;;
21243;SDS011;10780;50.942;4.028;2023-03-14T02:18:35;6.40;;;1.30;;
21243;SDS011;10780;50.942;4.028;2023-03-14T02:26:26;3.20;;;0.88;;
21243;SDS011;10780;50.942;4.028;2023-03-14T02:28:57;3.80;;;1.30;;
21243;SDS011;10780;50.942;4.028;2023-03-14T02:31:23;2.92;;;1.02;;
21243;SDS011;10780;50.942;4.028;2023-03-14T02:33:48;5.05;;;1.45;;
21243;SDS011;10780;50.942;4.028;2023-03-14T02:36:16;3.38;;;1.60;;
21243;SDS011;10780;50.942;4.028;2023-03-14T02:38:50;3.67;;;1.38;;
21243;SDS011;10780;50.942;4.028;2023-03-14T02:41:20;4.10;;;1.27;;
21243;SDS011;10780;50.942;4.028;2023-03-14T02:43:46;5.82;;;1.70;;
21243;SDS011;10780;50.942;4.028;2023-03-14T02:46:13;6.97;;;1.85;;
21243;SDS011;10780;50.942;4.028;2023-03-14T02:48:43;5.22;;;2.78;;
21243;SDS011;10780;50.942;4.028;2023-03-14T02:51:14;8.02;;;2.30;;
21243;SDS011;10780;50.942;4.028;2023-03-14T02:53:40;6.32;;;2.10;;
21243;SDS011;10780;50.942;4.028;2023-03-14T02:56:08;4.72;;;2.05;;
21243;SDS011;10780;50.942;4.028;2023-03-14T02:58:34;9.23;;;2.33;;
21243;SDS011;10780;50.942;4.028;2023-03-14T03:01:00;7.75;;;2.42;;
21243;SDS011;10780;50.942;4.028;2023-03-14T03:03:26;8.68;;;2.70;;
21243;SDS011;10780;50.942;4.028;2023-03-14T03:05:52;6.90;;;2.65;;
21243;SDS011;10780;50.942;4.028;2023-03-14T03:08:19;7.95;;;3.00;;
21243;SDS011;10780;50.942;4.028;2023-03-14T03:10:47;4.82;;;2.88;;
21243;SDS011;10780;50.942;4.028;2023-03-14T03:13:12;6.22;;;2.67;;
21243;SDS011;10780;50.942;4.028;2023-03-14T03:15:38;8.23;;;2.47;;
21243;SDS011;10780;50.942;4.028;2023-03-14T03:18:04;6.43;;;2.50;;
21243;SDS011;10780;50.942;4.028;2023-03-14T03:20:30;8.25;;;2.63;;
21243;SDS011;10780;50.942;4.028;2023-03-14T03:22:55;9.98;;;2.83;;
21243;SDS011;10780;50.942;4.028;2023-03-14T03:25:21;9.18;;;3.22;;
21243;SDS011;10780;50.942;4.028;2023-03-14T03:27:47;7.35;;;2.80;;
21243;SDS011;10780;50.942;4.028;2023-03-14T03:30:12;9.02;;;3.03;;
21243;SDS011;10780;50.942;4.028;2023-03-14T03:32:38;9.38;;;3.05;;
21243;SDS011;10780;50.942;4.028;2023-03-14T03:35:04;11.30;;;3.00;;
21243;SDS011;10780;50.942;4.028;2023-03-14T03:37:31;6.90;;;2.72;;
21243;SDS011;10780;50.942;4.028;2023-03-14T03:39:57;11.95;;;3.38;;
21243;SDS011;10780;50.942;4.028;2023-03-14T03:42:22;10.25;;;3.00;;
21243;SDS011;10780;50.942;4.028;2023-03-14T03:44:48;10.05;;;2.97;;
21243;SDS011;10780;50.942;4.028;2023-03-14T03:47:14;7.38;;;2.63;;
21243;SDS011;10780;50.942;4.028;2023-03-14T03:49:40;12.93;;;3.17;;
21243;SDS011;10780;50.942;4.028;2023-03-14T03:52:06;10.48;;;3.80;;
21243;SDS011;10780;50.942;4.028;2023-03-14T03:54:31;8.05;;;3.47;;
21243;SDS011;10780;50.942;4.028;2023-03-14T03:56:57;8.38;;;3.25;;
21243;SDS011;10780;50.942;4.028;2023-03-14T03:59:23;8.20;;;3.30;;
21243;SDS011;10780;50.942;4.028;2023-03-14T04:01:48;12.00;;;3.50;;
21243;SDS011;10780;50.942;4.028;2023-03-14T04:04:14;6.57;;;3.22;;
21243;SDS011;10780;50.942;4.028;2023-03-14T04:06:40;7.57;;;2.90;;
21243;SDS011;10780;50.942;4.028;2023-03-14T04:09:07;8.65;;;3.03;;
21243;SDS011;10780;50.942;4.028;2023-03-14T04:11:36;8.02;;;3.00;;
21243;SDS011;10780;50.942;4.028;2023-03-14T04:14:02;7.53;;;3.30;;
21243;SDS011;10780;50.942;4.028;2023-03-14T04:16:28;8.20;;;3.55;;
21243;SDS011;10780;50.942;4.028;2023-03-14T04:18:54;7.47;;;3.45;;
21243;SDS011;10780;50.942;4.028;2023-03-14T04:21:19;10.52;;;3.85;;
21243;SDS011;10780;50.942;4.028;2023-03-14T04:23:45;9.75;;;3.17;;
21243;SDS011;10780;50.942;4.028;2023-03-14T04:26:11;7.45;;;3.20;;
21243;SDS011;10780;50.942;4.028;2023-03-14T04:28:36;6.35;;;2.60;;
21243;SDS011;10780;50.942;4.028;2023-03-14T04:31:10;4.97;;;2.80;;
21243;SDS011;10780;50.942;4.028;2023-03-14T04:33:38;9.00;;;3.28;;
21243;SDS011;10780;50.942;4.028;2023-03-14T04:36:04;8.02;;;3.05;;
21243;SDS011;10780;50.942;4.028;2023-03-14T04:38:31;6.07;;;2.55;;
21243;SDS011;10780;50.942;4.028;2023-03-14T04:40:57;7.53;;;3.15;;
21243;SDS011;10780;50.942;4.028;2023-03-14T04:43:22;6.88;;;3.67;;
21243;SDS011;10780;50.942;4.028;2023-03-14T04:45:48;7.97;;;3.85;;
21243;SDS011;10780;50.942;4.028;2023-03-14T04:48:14;5.90;;;3.20;;
21243;SDS011;10780;50.942;4.028;2023-03-14T04:50:39;6.57;;;3.03;;
21243;SDS011;10780;50.942;4.028;2023-03-14T04:53:05;6.32;;;3.35;;
21243;SDS011;10780;50.942;4.028;2023-03-14T04:55:31;5.57;;;3.13;;
21243;SDS011;10780;50.942;4.028;2023-03-14T04:57:58;7.07;;;3.35;;
21243;SDS011;10780;50.942;4.028;2023-03-14T05:00:24;5.45;;;3.10;;
21243;SDS011;10780;50.942;4.028;2023-03-14T05:02:49;6.45;;;3.13;;
21243;SDS011;10780;50.942;4.028;2023-03-14T05:05:15;7.78;;;3.50;;
21243;SDS011;10780;50.942;4.028;2023-03-14T05:07:41;6.25;;;3.55;;
21243;SDS011;10780;50.942;4.028;2023-03-14T05:10:07;7.38;;;3.55;;
21243;SDS011;10780;50.942;4.028;2023-03-14T05:12:34;7.50;;;3.58;;
21243;SDS011;10780;50.942;4.028;2023-03-14T05:14:59;6.00;;;3.38;;
21243;SDS011;10780;50.942;4.028;2023-03-14T05:17:25;5.53;;;3.78;;
21243;SDS011;10780;50.942;4.028;2023-03-14T05:19:50;7.47;;;3.55;;
21243;SDS011;10780;50.942;4.028;2023-03-14T05:22:17;6.15;;;3.10;;
21243;SDS011;10780;50.942;4.028;2023-03-14T05:24:43;5.15;;;3.50;;
21243;SDS011;10780;50.942;4.028;2023-03-14T05:27:08;5.35;;;3.50;;
21243;SDS011;10780;50.942;4.028;2023-03-14T05:29:34;7.20;;;3.38;;
21243;SDS011;10780;50.942;4.028;2023-03-14T05:32:00;6.38;;;3.10;;
21243;SDS011;10780;50.942;4.028;2023-03-14T05:34:25;7.07;;;3.20;;
21243;SDS011;10780;50.942;4.028;2023-03-14T05:36:51;4.93;;;3.33;;
21243;SDS011;10780;50.942;4.028;2023-03-14T05:39:17;7.30;;;3.33;;
21243;SDS011;10780;50.942;4.028;2023-03-14T05:41:43;6.05;;;3.13;;
21243;SDS011;10780;50.942;4.028;2023-03-14T05:44:09;5.72;;;3.05;;
21243;SDS011;10780;50.942;4.028;2023-03-14T05:46:34;4.35;;;2.30;;
21243;SDS011;10780;50.942;4.028;2023-03-14T05:49:00;4.07;;;2.67;;
21243;SDS011;10780;50.942;4.028;2023-03-14T05:51:25;5.75;;;2.45;;
21243;SDS011;10780;50.942;4.028;2023-03-14T05:53:51;6.22;;;3.00;;
21243;SDS011;10780;50.942;4.028;2023-03-14T05:56:17;4.13;;;2.50;;
21243;SDS011;10780;50.942;4.028;2023-03-14T05:58:42;3.53;;;2.40;;
21243;SDS011;10780;50.942;4.028;2023-03-14T06:01:08;4.20;;;2.33;;
21243;SDS011;10780;50.942;4.028;2023-03-14T06:03:34;5.70;;;2.78;;
21243;SDS011;10780;50.942;4.028;2023-03-14T06:06:00;2.92;;;2.33;;
21243;SDS011;10780;50.942;4.028;2023-03-14T06:08:26;3.53;;;2.47;;
21243;SDS011;10780;50.942;4.028;2023-03-14T06:10:52;5.78;;;2.80;;
21243;SDS011;10780;50.942;4.028;2023-03-14T06:13:18;3.47;;;2.63;;
21243;SDS011;10780;50.942;4.028;2023-03-14T06:15:44;4.15;;;2.90;;
21243;SDS011;10780;50.942;4.028;2023-03-14T06:18:10;2.88;;;2.63;;
21243;SDS011;10780;50.942;4.028;2023-03-14T06:20:36;4.43;;;2.85;;
21243;SDS011;10780;50.942;4.028;2023-03-14T06:23:05;4.38;;;3.50;;
21243;SDS011;10780;50.942;4.028;2023-03-14T06:25:32;3.25;;;2.53;;
21243;SDS011;10780;50.942;4.028;2023-03-14T06:27:58;6.60;;;3.47;;
21243;SDS011;10780;50.942;4.028;2023-03-14T06:30:24;6.90;;;4.05;;
21243;SDS011;10780;50.942;4.028;2023-03-14T06:32:49;4.90;;;3.38;;
21243;SDS011;10780;50.942;4.028;2023-03-14T06:35:15;6.82;;;3.03;;
21243;SDS011;10780;50.942;4.028;2023-03-14T06:37:41;7.20;;;3.13;;
21243;SDS011;10780;50.942;4.028;2023-03-14T06:40:07;6.85;;;2.60;;
21243;SDS011;10780;50.942;4.028;2023-03-14T06:42:38;5.38;;;2.92;;
21243;SDS011;10780;50.942;4.028;2023-03-14T06:45:04;4.10;;;2.50;;
21243;SDS011;10780;50.942;4.028;2023-03-14T06:47:30;5.65;;;2.83;;
21243;SDS011;10780;50.942;4.028;2023-03-14T06:49:56;7.57;;;3.00;;
21243;SDS011;10780;50.942;4.028;2023-03-14T06:52:22;8.48;;;3.70;;
21243;SDS011;10780;50.942;4.028;2023-03-14T06:54:47;5.05;;;3.22;;
21243;SDS011;10780;50.942;4.028;2023-03-14T06:57:13;6.72;;;3.70;;
21243;SDS011;10780;50.942;4.028;2023-03-14T06:59:38;7.00;;;3.50;;
21243;SDS011;10780;50.942;4.028;2023-03-14T07:02:04;4.55;;;3.13;;
21243;SDS011;10780;50.942;4.028;2023-03-14T07:04:32;5.15;;;3.08;;
21243;SDS011;10780;50.942;4.028;2023-03-14T07:06:58;5.10;;;3.40;;
21243;SDS011;10780;50.942;4.028;2023-03-14T07:09:23;5.82;;;3.42;;
21243;SDS011;10780;50.942;4.028;2023-03-14T07:11:49;7.18;;;3.70;;
21243;SDS011;10780;50.942;4.028;2023-03-14T07:14:15;7.88;;;3.80;;
21243;SDS011;10780;50.942;4.028;2023-03-14T07:16:40;6.22;;;4.30;;
21243;SDS011;10780;50.942;4.028;2023-03-14T07:19:06;7.28;;;4.45;;
21243;SDS011;10780;50.942;4.028;2023-03-14T07:21:32;8.27;;;4.00;;
21243;SDS011;10780;50.942;4.028;2023-03-14T07:23:59;7.20;;;4.03;;
21243;SDS011;10780;50.942;4.028;2023-03-14T07:26:25;7.32;;;5.63;;
21243;SDS011;10780;50.942;4.028;2023-03-14T07:28:50;8.48;;;5.63;;
21243;SDS011;10780;50.942;4.028;2023-03-14T07:31:16;8.55;;;4.95;;
21243;SDS011;10780;50.942;4.028;2023-03-14T07:33:42;11.05;;;5.78;;
21243;SDS011;10780;50.942;4.028;2023-03-14T07:36:07;10.13;;;4.90;;
21243;SDS011;10780;50.942;4.028;2023-03-14T07:38:34;12.07;;;4.65;;
21243;SDS011;10780;50.942;4.028;2023-03-14T07:41:03;8.80;;;4.97;;
21243;SDS011;10780;50.942;4.028;2023-03-14T07:43:31;14.18;;;5.18;;
21243;SDS011;10780;50.942;4.028;2023-03-14T07:45:58;8.55;;;5.13;;
21243;SDS011;10780;50.942;4.028;2023-03-14T07:48:25;7.82;;;4.85;;
21243;SDS011;10780;50.942;4.028;2023-03-14T07:50:52;11.57;;;5.30;;
21243;SDS011;10780;50.942;4.028;2023-03-14T07:53:19;11.57;;;5.20;;
21243;SDS011;10780;50.942;4.028;2023-03-14T07:55:46;16.52;;;6.55;;
21243;SDS011;10780;50.942;4.028;2023-03-14T07:58:12;11.38;;;6.13;;
21243;SDS011;10780;50.942;4.028;2023-03-14T08:00:37;12.30;;;5.35;;
21243;SDS011;10780;50.942;4.028;2023-03-14T08:03:03;8.82;;;4.57;;
21243;SDS011;10780;50.942;4.028;2023-03-14T08:05:29;8.65;;;4.20;;
21243;SDS011;10780;50.942;4.028;2023-03-14T08:07:55;6.50;;;3.85;;
21243;SDS011;10780;50.942;4.028;2023-03-14T08:10:21;4.55;;;2.88;;
21243;SDS011;10780;50.942;4.028;2023-03-14T08:12:48;4.97;;;3.30;;
21243;SDS011;10780;50.942;4.028;2023-03-14T08:15:14;4.53;;;3.08;;
21243;SDS011;10780;50.942;4.028;2023-03-14T08:17:40;7.28;;;3.50;;
21243;SDS011;10780;50.942;4.028;2023-03-14T08:20:05;4.60;;;2.95;;
21243;SDS011;10780;50.942;4.028;2023-03-14T08:22:33;6.18;;;3.30;;
21243;SDS011;10780;50.942;4.028;2023-03-14T08:24:58;5.72;;;3.17;;
21243;SDS011;10780;50.942;4.028;2023-03-14T08:27:24;8.18;;;4.25;;
21243;SDS011;10780;50.942;4.028;2023-03-14T08:29:50;4.68;;;3.08;;
21243;SDS011;10780;50.942;4.028;2023-03-14T08:32:15;5.80;;;3.45;;
21243;SDS011;10780;50.942;4.028;2023-03-14T08:34:41;6.47;;;3.75;;
21243;SDS011;10780;50.942;4.028;2023-03-14T08:37:07;5.15;;;3.47;;
21243;SDS011;10780;50.942;4.028;2023-03-14T08:39:33;8.07;;;4.13;;
21243;SDS011;10780;50.942;4.028;2023-03-14T08:41:58;6.78;;;4.00;;
21243;SDS011;10780;50.942;4.028;2023-03-14T08:44:24;7.63;;;4.20;;
21243;SDS011;10780;50.942;4.028;2023-03-14T08:46:50;7.50;;;4.15;;
21243;SDS011;10780;50.942;4.028;2023-03-14T08:49:15;6.85;;;4.45;;
21243;SDS011;10780;50.942;4.028;2023-03-14T08:51:41;9.65;;;4.05;;
21243;SDS011;10780;50.942;4.028;2023-03-14T08:54:09;5.80;;;3.63;;
21243;SDS011;10780;50.942;4.028;2023-03-14T08:56:36;8.57;;;4.10;;
21243;SDS011;10780;50.942;4.028;2023-03-14T08:59:03;10.55;;;3.50;;
21243;SDS011;10780;50.942;4.028;2023-03-14T09:01:29;9.85;;;4.13;;
21243;SDS011;10780;50.942;4.028;2023-03-14T09:03:57;12.95;;;3.85;;
21243;SDS011;10780;50.942;4.028;2023-03-14T09:06:23;9.40;;;4.25;;
21243;SDS011;10780;50.942;4.028;2023-03-14T09:08:49;13.05;;;3.60;;
21243;SDS011;10780;50.942;4.028;2023-03-14T09:11:14;11.25;;;4.28;;
21243;SDS011;10780;50.942;4.028;2023-03-14T09:13:40;12.65;;;4.68;;
21243;SDS011;10780;50.942;4.028;2023-03-14T09:16:06;11.23;;;4.05;;
21243;SDS011;10780;50.942;4.028;2023-03-14T09:18:33;16.80;;;5.18;;
21243;SDS011;10780;50.942;4.028;2023-03-14T09:20:59;14.82;;;4.65;;
21243;SDS011;10780;50.942;4.028;2023-03-14T09:23:25;7.90;;;3.85;;
21243;SDS011;10780;50.942;4.028;2023-03-14T09:25:54;7.18;;;3.38;;
21243;SDS011;10780;50.942;4.028;2023-03-14T09:28:20;7.97;;;3.92;;
21243;SDS011;10780;50.942;4.028;2023-03-14T09:30:46;8.70;;;4.07;;
21243;SDS011;10780;50.942;4.028;2023-03-14T09:33:12;7.60;;;3.47;;
21243;SDS011;10780;50.942;4.028;2023-03-14T09:35:38;8.63;;;3.38;;
21243;SDS011;10780;50.942;4.028;2023-03-14T09:38:04;8.05;;;2.90;;
21243;SDS011;10780;50.942;4.028;2023-03-14T09:40:31;8.38;;;3.63;;
21243;SDS011;10780;50.942;4.028;2023-03-14T09:43:00;9.07;;;3.58;;
21243;SDS011;10780;50.942;4.028;2023-03-14T09:45:33;7.25;;;3.28;;
21243;SDS011;10780;50.942;4.028;2023-03-14T09:48:01;13.68;;;4.07;;
21243;SDS011;10780;50.942;4.028;2023-03-14T09:50:39;10.70;;;3.00;;
21243;SDS011;10780;50.942;4.028;2023-03-14T09:53:12;8.00;;;2.92;;
21243;SDS011;10780;50.942;4.028;2023-03-14T09:55:41;7.15;;;2.50;;
21243;SDS011;10780;50.942;4.028;2023-03-14T09:58:09;8.93;;;2.92;;
21243;SDS011;10780;50.942;4.028;2023-03-14T10:00:38;10.63;;;3.00;;
21243;SDS011;10780;50.942;4.028;2023-03-14T10:03:26;6.18;;;2.80;;
21243;SDS011;10780;50.942;4.028;2023-03-14T10:06:00;7.57;;;3.05;;
21243;SDS011;10780;50.942;4.028;2023-03-14T10:08:26;7.55;;;2.92;;
21243;SDS011;10780;50.942;4.028;2023-03-14T10:10:52;7.93;;;2.63;;
21243;SDS011;10780;50.942;4.028;2023-03-14T10:16:09;9.10;;;3.65;;
21243;SDS011;10780;50.942;4.028;2023-03-14T10:18:35;6.90;;;2.92;;
21243;SDS011;10780;50.942;4.028;2023-03-14T10:23:50;9.48;;;3.17;;
21243;SDS011;10780;50.942;4.028;2023-03-14T10:26:28;7.80;;;2.72;;
21243;SDS011;10780;50.942;4.028;2023-03-14T10:29:08;6.72;;;2.67;;
21243;SDS011;10780;50.942;4.028;2023-03-14T10:31:54;7.03;;;3.88;;
21243;SDS011;10780;50.942;4.028;2023-03-14T10:34:27;9.10;;;3.40;;
21243;SDS011;10780;50.942;4.028;2023-03-14T10:36:59;9.02;;;2.60;;
21243;SDS011;10780;50.942;4.028;2023-03-14T10:39:42;7.03;;;3.33;;
21243;SDS011;10780;50.942;4.028;2023-03-14T10:42:14;8.63;;;3.30;;
21243;SDS011;10780;50.942;4.028;2023-03-14T10:44:51;4.30;;;2.33;;
21243;SDS011;10780;50.942;4.028;2023-03-14T10:47:22;6.50;;;2.80;;
21243;SDS011;10780;50.942;4.028;2023-03-14T10:49:49;5.95;;;2.60;;
21243;SDS011;10780;50.942;4.028;2023-03-14T10:54:57;7.88;;;2.30;;
21243;SDS011;10780;50.942;4.028;2023-03-14T10:57:28;3.65;;;2.28;;
21243;SDS011;10780;50.942;4.028;2023-03-14T10:59:55;7.13;;;2.40;;
21243;SDS011;10780;50.942;4.028;2023-03-14T11:05:12;4.00;;;2.38;;
21243;SDS011;10780;50.942;4.028;2023-03-14T11:07:46;3.72;;;1.70;;
21243;SDS011;10780;50.942;4.028;2023-03-14T11:15:25;3.70;;;2.13;;
21243;SDS011;10780;50.942;4.028;2023-03-14T11:18:09;3.50;;;2.30;;
21243;SDS011;10780;50.942;4.028;2023-03-14T11:21:06;5.68;;;2.22;;
21243;SDS011;10780;50.942;4.028;2023-03-14T11:24:04;3.72;;;2.08;;
21243;SDS011;10780;50.942;4.028;2023-03-14T11:26:47;4.30;;;2.10;;
21243;SDS011;10780;50.942;4.028;2023-03-14T11:29:26;6.53;;;2.30;;
21243;SDS011;10780;50.942;4.028;2023-03-14T11:32:04;4.35;;;2.13;;
21243;SDS011;10780;50.942;4.028;2023-03-14T11:34:52;3.30;;;1.90;;
21243;SDS011;10780;50.942;4.028;2023-03-14T11:37:32;2.40;;;1.88;;
21243;SDS011;10780;50.942;4.028;2023-03-14T11:42:43;3.78;;;2.13;;
21243;SDS011;10780;50.942;4.028;2023-03-14T11:45:23;4.10;;;2.70;;
21243;SDS011;10780;50.942;4.028;2023-03-14T11:48:04;4.57;;;2.17;;
21243;SDS011;10780;50.942;4.028;2023-03-14T11:50:43;4.35;;;2.42;;
21243;SDS011;10780;50.942;4.028;2023-03-14T11:53:48;3.58;;;2.45;;
21243;SDS011;10780;50.942;4.028;2023-03-14T11:56:15;5.28;;;2.40;;
21243;SDS011;10780;50.942;4.028;2023-03-14T11:58:51;3.80;;;2.00;;
21243;SDS011;10780;50.942;4.028;2023-03-14T12:01:24;3.70;;;2.08;;
21243;SDS011;10780;50.942;4.028;2023-03-14T12:04:01;4.68;;;2.78;;
21243;SDS011;10780;50.942;4.028;2023-03-14T12:06:45;6.50;;;2.70;;
21243;SDS011;10780;50.942;4.028;2023-03-14T12:09:16;4.22;;;2.70;;
21243;SDS011;10780;50.942;4.028;2023-03-14T12:16:56;6.38;;;2.47;;
21243;SDS011;10780;50.942;4.028;2023-03-14T12:25:38;10.88;;;2.97;;
21243;SDS011;10780;50.942;4.028;2023-03-14T12:28:34;9.00;;;3.00;;
21243;SDS011;10780;50.942;4.028;2023-03-14T12:30:45;14.68;;;3.53;;
21243;SDS011;10780;50.942;4.028;2023-03-14T12:33:11;13.20;;;3.67;;
21243;SDS011;10780;50.942;4.028;2023-03-14T12:43:42;11.25;;;2.55;;
21243;SDS011;10780;50.942;4.028;2023-03-14T12:48:34;7.88;;;2.72;;
21243;SDS011;10780;50.942;4.028;2023-03-14T12:51:03;8.52;;;3.17;;
21243;SDS011;10780;50.942;4.028;2023-03-14T13:02:24;13.00;;;3.40;;
21243;SDS011;10780;50.942;4.028;2023-03-14T13:15:55;15.95;;;3.67;;
21243;SDS011;10780;50.942;4.028;2023-03-14T13:18:32;12.25;;;3.25;;
21243;SDS011;10780;50.942;4.028;2023-03-14T13:24:01;11.80;;;2.97;;
21243;SDS011;10780;50.942;4.028;2023-03-14T13:26:38;13.15;;;3.30;;
21243;SDS011;10780;50.942;4.028;2023-03-14T13:29:24;15.18;;;3.60;;
21243;SDS011;10780;50.942;4.028;2023-03-14T13:31:58;8.10;;;2.58;;
21243;SDS011;10780;50.942;4.028;2023-03-14T13:34:26;11.43;;;3.00;;
21243;SDS011;10780;50.942;4.028;2023-03-14T13:36:58;14.00;;;2.78;;
21243;SDS011;10780;50.942;4.028;2023-03-14T13:39:25;11.63;;;2.58;;
21243;SDS011;10780;50.942;4.028;2023-03-14T13:41:54;11.48;;;2.33;;
21243;SDS011;10780;50.942;4.028;2023-03-14T13:44:25;10.50;;;1.92;;
21243;SDS011;10780;50.942;4.028;2023-03-14T13:46:59;12.52;;;2.78;;
21243;SDS011;10780;50.942;4.028;2023-03-14T13:49:27;9.13;;;2.30;;
21243;SDS011;10780;50.942;4.028;2023-03-14T13:51:57;14.13;;;2.80;;
21243;SDS011;10780;50.942;4.028;2023-03-14T13:54:25;12.23;;;2.53;;
21243;SDS011;10780;50.942;4.028;2023-03-14T13:57:02;13.07;;;2.53;;
21243;SDS011;10780;50.942;4.028;2023-03-14T13:59:30;8.52;;;2.15;;
21243;SDS011;10780;50.942;4.028;2023-03-14T14:01:58;11.35;;;2.75;;
21243;SDS011;10780;50.942;4.028;2023-03-14T14:04:55;13.30;;;2.33;;
21243;SDS011;10780;50.942;4.028;2023-03-14T14:07:22;8.73;;;1.70;;
21243;SDS011;10780;50.942;4.028;2023-03-14T14:09:49;7.80;;;2.03;;
21243;SDS011;10780;50.942;4.028;2023-03-14T14:14:58;7.88;;;1.88;;
21243;SDS011;10780;50.942;4.028;2023-03-14T14:17:36;10.82;;;1.95;;
21243;SDS011;10780;50.942;4.028;2023-03-14T14:20:14;3.60;;;1.23;;
21243;SDS011;10780;50.942;4.028;2023-03-14T14:22:51;8.23;;;1.40;;
21243;SDS011;10780;50.942;4.028;2023-03-14T14:25:18;4.63;;;1.40;;
21243;SDS011;10780;50.942;4.028;2023-03-14T14:27:46;5.50;;;1.60;;
21243;SDS011;10780;50.942;4.028;2023-03-14T14:32:42;7.70;;;1.30;;
21243;SDS011;10780;50.942;4.028;2023-03-14T14:37:50;2.70;;;0.90;;
21243;SDS011;10780;50.942;4.028;2023-03-14T14:42:50;2.42;;;1.27;;
21243;SDS011;10780;50.942;4.028;2023-03-14T14:45:18;3.58;;;1.10;;
21243;SDS011;10780;50.942;4.028;2023-03-14T14:48:05;1.98;;;0.80;;
21243;SDS011;10780;50.942;4.028;2023-03-14T14:50:36;5.35;;;1.27;;
21243;SDS011;10780;50.942;4.028;2023-03-14T14:53:21;4.80;;;1.40;;
21243;SDS011;10780;50.942;4.028;2023-03-14T14:56:18;2.47;;;0.90;;
21243;SDS011;10780;50.942;4.028;2023-03-14T14:58:48;4.53;;;1.42;;
21243;SDS011;10780;50.942;4.028;2023-03-14T15:03:44;3.60;;;1.08;;
21243;SDS011;10780;50.942;4.028;2023-03-14T15:06:13;4.07;;;1.73;;
21243;SDS011;10780;50.942;4.028;2023-03-14T15:08:40;2.28;;;1.10;;
21243;SDS011;10780;50.942;4.028;2023-03-14T15:11:08;4.95;;;1.10;;
21243;SDS011;10780;50.942;4.028;2023-03-14T15:13:47;2.17;;;1.27;;
21243;SDS011;10780;50.942;4.028;2023-03-14T15:16:17;6.05;;;1.88;;
21243;SDS011;10780;50.942;4.028;2023-03-14T15:18:47;1.85;;;1.60;;
21243;SDS011;10780;50.942;4.028;2023-03-14T15:21:17;2.70;;;1.48;;
21243;SDS011;10780;50.942;4.028;2023-03-14T15:23:43;3.30;;;1.67;;
21243;SDS011;10780;50.942;4.028;2023-03-14T15:26:12;2.13;;;1.35;;
21243;SDS011;10780;50.942;4.028;2023-03-14T15:28:40;6.07;;;1.67;;
21243;SDS011;10780;50.942;4.028;2023-03-14T15:31:08;4.68;;;1.50;;
21243;SDS011;10780;50.942;4.028;2023-03-14T15:33:35;2.80;;;1.30;;
21243;SDS011;10780;50.942;4.028;2023-03-14T15:36:02;3.88;;;1.42;;
21243;SDS011;10780;50.942;4.028;2023-03-14T15:38:28;4.30;;;1.40;;
21243;SDS011;10780;50.942;4.028;2023-03-14T15:40:54;3.58;;;1.63;;
21243;SDS011;10780;50.942;4.028;2023-03-14T15:43:20;2.58;;;1.25;;
21243;SDS011;10780;50.942;4.028;2023-03-14T15:45:46;6.03;;;1.70;;
21243;SDS011;10780;50.942;4.028;2023-03-14T15:48:14;4.47;;;1.40;;
21243;SDS011;10780;50.942;4.028;2023-03-14T15:50:42;1.40;;;1.15;;
21243;SDS011;10780;50.942;4.028;2023-03-14T15:53:08;9.30;;;1.67;;
21243;SDS011;10780;50.942;4.028;2023-03-14T15:55:34;4.72;;;1.98;;
21243;SDS011;10780;50.942;4.028;2023-03-14T15:57:59;6.30;;;2.20;;
21243;SDS011;10780;50.942;4.028;2023-03-14T16:00:27;10.25;;;2.03;;
21243;SDS011;10780;50.942;4.028;2023-03-14T16:02:53;5.63;;;1.85;;
21243;SDS011;10780;50.942;4.028;2023-03-14T16:05:19;9.57;;;2.38;;
21243;SDS011;10780;50.942;4.028;2023-03-14T16:07:45;7.68;;;2.05;;
21243;SDS011;10780;50.942;4.028;2023-03-14T16:10:11;10.40;;;2.78;;
21243;SDS011;10780;50.942;4.028;2023-03-14T16:12:38;6.93;;;2.00;;
21243;SDS011;10780;50.942;4.028;2023-03-14T16:15:04;13.82;;;2.78;;
21243;SDS011;10780;50.942;4.028;2023-03-14T16:17:31;10.82;;;2.53;;
21243;SDS011;10780;50.942;4.028;2023-03-14T16:19:57;13.50;;;3.47;;